Fernando Martinez

Recruteur en chef - Atletico Venezuela
6 Janv 2028
Jeudi
Processus

Personnalité

Adaptabilité (16) Ambition (8) Controverse (7) Loyauté (13) Pression (8) Professionnalisme (9) Sportivité (18) Tempérament (17)

Profil

Style d'entraînement Démocratique
Diplôme Continental B
Détermination 8
Gestion des joueurs 10
Motivation 3
Discipline 10
Satisfaction professionnelle
100%
Fatigue
0%
Rôle Recruteur en chef
Salaire 37.5K p/s
Contrat 14.03.2030

Performance

Comportement Bon
Efficacité de l'entraînement
33%
Développement des joueurs
45%
Prévention des blessures
25%
Mise en place tactique
20%

Événements récents

A évalué un joueur 7j
A participé à une réunion de recrutement 7j
A recommandé une cible de transfert 7j
A présenté un dossier au conseil 7j
A évalué un joueur 14j
A participé à une réunion de recrutement 14j
A recommandé une cible de transfert 14j
A présenté un dossier au conseil 14j

Suivi en cours

125
Joueur Club Statut Capacité Confiance Observé Dernière observation Dernier vote
Nahuel Pezzini Arsenal Actif 112 / 111 40% 2 27.12.2027 -
Víctor Saya Deportivo La Guaira Rapport prêt 72 / 87 69% 1 27.12.2027 -
Nahuel Galardi Maipú Négociation 119 / 115 40% 1 27.12.2027 -
Joaquín Bigo Tristán Suárez Actif 115 / 107 40% 1 27.12.2027 -
Franco Carretero Deportivo Lara Négociation 110 / 104 40% 1 20.12.2027 -
Michele Di Gregorio Juventus Actif 155 / 164 40% 1 20.12.2027 -
George Wickens Lincoln City Actif 136 / 132 40% 1 20.12.2027 -
Cristopher Varela Deportivo La Guaira Actif 120 / 123 40% 1 13.12.2027 -
Agustín Lastra Estudiantes Négociation 119 / 109 40% 1 13.12.2027 -
Dino Trotta Deportivo La Guaira Négociation 81 / 82 69% 1 01.12.2027 -
Agustín Módica Gimnasia y Esgrima Actif 125 / 128 40% 1 01.12.2027 -
Carlos Torres Orenburg Actif 105 / 93 40% 1 01.12.2027 -
Juan Rocca Gimnasia y Tiro Actif 118 / 110 40% 1 01.12.2027 -
Naygers Flores Deportivo La Guaira Actif 86 / 86 69% 1 01.06.2027 Approuver
Sergio Carrasco Cobresal Actif 98 / 96 40% 1 01.06.2027 -
Sebastián Cocimano Nueva Chicago Actif 108 / 110 40% 1 01.06.2027 -
Alexander Díaz Deportivo Riestra Actif 114 / 116 40% 1 01.06.2027 -
Louis Appéré Cambridge United Actif 93 / 101 40% 1 27.11.2026 -
Matty Stevens AFC Wimbledon Actif 105 / 96 40% 1 27.11.2026 -
Lee Bonis Chesterfield Actif 95 / 116 40% 2 26.11.2026 -
Jonás Luna Santa Clara Actif 118 / 108 40% 1 26.11.2026 -
Edarlyn Reyes Arsenal Tula Actif 120 / 120 40% 4 25.11.2026 -
Vyacheslav Grulev Nizhniy Novgorod Actif 107 / 112 40% 3 25.11.2026 -
Anderson Gutiérrez Chelyabinsk Actif 96 / 97 40% 1 25.11.2026 -
Nathan Ordaz Metalist Actif 100 / 104 40% 1 24.11.2026 -
Sonny Perkins Leyton Orient Actif 84 / 100 40% 1 24.11.2026 -
Breel Embolo Atlanta United FC Actif 147 / 133 40% 5 21.11.2026 -
Marcos Cuenca Zaragoza Actif 104 / 122 40% 4 20.11.2026 -
Isaac Matondo Koper Actif 98 / 90 40% 1 20.11.2026 -
Sebastián Ybares Neftekhimik Actif 92 / 98 40% 1 17.11.2026 -
Mauro Rodrigues Botev Plovdiv Actif 107 / 97 40% 1 16.11.2026 -
Ekain Orobengoa Real Sociedad Actif 94 / 91 40% 3 14.11.2026 -
Gilson Benchimol Akron Actif 117 / 113 40% 1 14.11.2026 -
Alexandr Saplinov Volga Actif 99 / 95 40% 1 10.11.2026 -
Johnly Yfeko Exeter City Actif 102 / 103 40% 1 10.11.2026 -
Job Ochieng Real Sociedad Actif 115 / 94 40% 3 08.11.2026 -
Eduardo Armenta Ufa Actif 92 / 91 40% 1 07.11.2026 -
Kenan Dervišagić Floriana Actif 108 / 103 40% 2 06.11.2026 -
Axel Pérez NK Domzale Actif 96 / 114 40% 1 06.11.2026 -
Fabricio Oviedo Rosario Central Actif 100 / 117 40% 1 04.11.2026 -
Stephen Humphrys Bradford City Actif 102 / 96 40% 2 03.11.2026 -
Sergio Riffo NK Zavrc Actif 104 / 103 40% 3 01.11.2026 -
Kamran Aliev SKA Khabarovsk Actif 111 / 106 40% 1 30.10.2026 -
Jhon Flor Sokol Actif 78 / 105 40% 1 30.10.2026 -
Juan Manuel Jorge Defensor Sporting Actif 109 / 109 40% 1 30.10.2026 -
Esteven Salguero Patriotas Actif 105 / 99 40% 2 28.10.2026 -
Marcus Browne AFC Wimbledon Actif 112 / 89 40% 2 27.10.2026 -
Mario García Racing Santander Actif 114 / 128 40% 2 27.10.2026 -
Luka Kurtovic NK Domzale Actif 121 / 113 40% 4 26.10.2026 -
Yeangel Montero Naxxar Lions Actif 101 / 118 40% 1 26.10.2026 -
Aldahir Pérez Tijuana Actif 102 / 122 40% 1 25.10.2026 -
Mauro Smarra Deportivo Riestra Actif 106 / 108 40% 1 24.10.2026 -
Milton Castagna Neftekhimik Actif 104 / 91 40% 1 23.10.2026 -
Sam Nombe Milton Keynes Dons Actif 119 / 99 40% 2 21.10.2026 -
Gaspar Duarte Rosario Central Actif 114 / 115 40% 2 20.10.2026 -
Robert Murić Floriana Actif 101 / 117 40% 1 20.10.2026 -
Diego Valencia Universidad Catolica Actif 110 / 105 40% 3 19.10.2026 -
Martin Sekulić Ural Actif 116 / 109 40% 3 19.10.2026 -
Milan Tučić ND Gorica Actif 95 / 107 40% 1 19.10.2026 -
Gabriel Jesus Barcelona Actif 165 / 162 40% 6 18.10.2026 -
Diego Méndez Tacuarembo Actif 85 / 87 40% 5 17.10.2026 -
Facundo Pimienta Atlético Tucumán Actif 89 / 101 40% 1 15.10.2026 -
Joaquín Rivero Instituto Actif 87 / 92 40% 3 13.10.2026 -
Thiago Ponce Rosario Central Actif 97 / 101 40% 1 12.10.2026 -
Ignacio Sabatini Gimnasia y Esgrima Actif 100 / 109 40% 1 10.10.2026 -
Gorka Gorosabel Real Sociedad Actif 99 / 130 40% 1 09.10.2026 -
Vladimir Khubulov Dinamo Makhachkala Actif 104 / 123 40% 1 09.10.2026 -
Manprit Sarkaria Austria Wien Actif 126 / 129 40% 1 08.10.2026 -
Luis Rojas Universidad de Concepcion Actif 92 / 93 40% 2 02.10.2026 -
Cristhofer Mesías Universidad de Concepcion Actif 95 / 109 40% 1 30.09.2026 -
Juan Salas Patronato Actif 113 / 117 40% 1 30.09.2026 -
Mariano Bracamonte Deportivo Riestra Actif 113 / 116 40% 2 29.09.2026 -
Kyle Joseph Middlesbrough Actif 104 / 113 40% 2 26.09.2026 -
Bojan Radulović Huddersfield Town Actif 117 / 101 40% 1 25.09.2026 -
Luca Babino Huracán Actif 115 / 113 40% 1 25.09.2026 -
Amadou Diawara Leganés Actif 112 / 122 40% 1 25.09.2026 -
Carlos Rosel Grodig Actif 92 / 98 40% 1 23.09.2026 -
Lautaro Mora Huracán Actif 102 / 121 40% 1 23.09.2026 -
Lewis McCann Fleetwood Town Actif 98 / 102 40% 1 21.09.2026 -
Lautaro Quiroga Defensa y Justicia Actif 97 / 108 40% 1 21.09.2026 -
Alexei Dominguez Pachuca Actif 101 / 96 40% 1 17.09.2026 -
Tomás Orqueida Mattersburg Actif 108 / 96 40% 1 17.09.2026 -
David Barrero Nizhniy Novgorod Actif 95 / 83 40% 1 16.09.2026 -
Duván Mósquera Aguilas Doradas Actif 111 / 108 40% 1 16.09.2026 -
Facundo Pérez Juventud Actif 96 / 105 40% 1 15.09.2026 -
Lander Astiazarán Real Sociedad Actif 113 / 111 40% 1 15.09.2026 -
Galo Galarza Estudiantes Actif 91 / 96 40% 1 15.09.2026 -
Juan Román Zarza BK Hacken Actif 90 / 88 40% 1 14.09.2026 -
Maximo Ingravidi Colón Actif 95 / 113 40% 1 13.09.2026 -
Bruno Hernández Cerro Largo Actif 91 / 97 40% 1 11.09.2026 -
Alexis Dulón Huracán Actif 87 / 91 40% 1 11.09.2026 -
Tomás Romero Unión de Santa Fe Actif 91 / 101 40% 1 11.09.2026 -
Cristhian Medina Dinamo Brest Actif 86 / 88 40% 1 01.09.2026 -
Marcos Camarda Santiago Wanderers Actif 100 / 104 40% 4 31.08.2026 -
Agustín Zabaleta Chaco For Ever Actif 95 / 88 40% 1 31.08.2026 -
Gonzalo Tapia Palestino Actif 100 / 101 40% 1 31.08.2026 -
Agustín Fernández NK Zavrc Actif 84 / 92 40% 1 30.08.2026 -
Richard Celis Zamora Actif 100 / 117 40% 1 30.08.2026 -
Jandro Orellana Cádiz Actif 118 / 104 40% 1 30.08.2026 -
Gonzalo Larrazábal Deportivo Maldonado Actif 94 / 90 40% 1 28.08.2026 -
Gonzalo Aguirre Cienciano Actif 93 / 96 40% 1 28.08.2026 -
Jeriel De Santis Caracas Actif 99 / 95 40% 1 27.08.2026 -
Adalberto Peñaranda Deportivo Tachira Actif 113 / 105 40% 2 26.08.2026 -
Junior Paredes Trujillanos Actif 92 / 107 40% 1 25.08.2026 -
Kavier Ortiz Metropolitanos Actif 99 / 103 40% 1 25.08.2026 -
Francisco Galván Deportivo Municipal Actif 103 / 99 40% 2 18.08.2026 -
Tadeo Polli San Martín Actif 92 / 88 40% 1 18.08.2026 -
Tobías Bovone Deportivo Pereira Actif 114 / 109 40% 1 16.08.2026 -
Gerónimo Tomasetti Temperley Actif 112 / 115 40% 1 16.08.2026 -
Tomás Galván River Plate Actif 118 / 115 40% 1 15.08.2026 -
Franco Sivetti Gimnasia y Tiro Actif 113 / 102 40% 1 15.08.2026 -
Jules-Anthony Vilsaint Toronto FC Actif 106 / 105 40% 1 12.08.2026 -
Ramiro Ruiz Rodríguez Atlético Tucumán Actif 125 / 112 40% 1 11.08.2026 -
Bruno Gomes Valletta Actif 85 / 108 40% 1 10.08.2026 -
Hakeeb Adelakun Doncaster Rovers Actif 98 / 117 40% 1 10.08.2026 -
Joaquín Zappacosta Morón Actif 86 / 87 40% 1 09.08.2026 -
Cristian Núñez Huracán Actif 107 / 114 40% 1 06.08.2026 -
Jano Franco Independiente Rivadavia Actif 92 / 82 40% 1 06.08.2026 -
Jeremy Rafanello Philadelphia Union Actif 93 / 101 40% 1 05.08.2026 -
Alassana Jatta Notts County Actif 105 / 119 40% 2 04.08.2026 -
Elías Ovelar Dinamo Brest Actif 96 / 83 40% 1 04.08.2026 -
Martín Pino Godoy Cruz Actif 114 / 106 40% 1 02.08.2026 -
Joe Abrigo Palestino Actif 118 / 115 40% 1 02.08.2026 -
David Barbona Defensa y Justicia Actif 120 / 113 40% 1 01.08.2026 -
Pablo Durán Celta Actif 124 / 122 40% 1 01.08.2026 -